Time;durP1;ratioP1;P1;durP2;ratioP2;P2;SDS_P1;SDS_P2;PMS_P1;PMS_P2;Temp;Humidity;BMP_temperature;BMP_pressure;BME280_temperature;BME280_humidity;BME280_pressure;Samples;Min_cycle;Max_cycle;Signal;HPM_P1;HPM_P2
2021/07/02 00:02:03;;;;;;;74.28;27.95;;;14.30;99.90;;;;;;5040241;28;20036;-61
2021/07/02 00:04:29;;;;;;;82.50;30.25;;;14.30;99.90;;;;;;5041147;28;20049;-61
2021/07/02 00:06:55;;;;;;;71.03;27.42;;;14.30;99.90;;;;;;5041855;28;20058;-60
2021/07/02 00:09:20;;;;;;;81.43;31.38;;;14.30;99.90;;;;;;5041103;28;20492;-60
2021/07/02 00:11:46;;;;;;;88.15;31.52;;;14.30;99.90;;;;;;5044814;28;20445;-61
2021/07/02 00:14:11;;;;;;;83.35;31.40;;;14.30;99.90;;;;;;5043347;28;20131;-61
2021/07/02 00:16:37;;;;;;;74.65;29.70;;;14.30;99.90;;;;;;5048826;28;20036;-60
2021/07/02 00:19:03;;;;;;;77.63;30.95;;;14.30;99.90;;;;;;5051417;28;20033;-61
2021/07/02 00:21:28;;;;;;;84.05;30.08;;;14.30;99.90;;;;;;5048017;28;20032;-61
2021/07/02 00:23:54;;;;;;;76.53;30.98;;;14.30;99.90;;;;;;5051039;28;20075;-61
2021/07/02 00:26:20;;;;;;;77.72;31.73;;;14.30;99.90;;;;;;5049216;28;20040;-61
2021/07/02 00:28:45;;;;;;;72.68;28.33;;;14.30;99.90;;;;;;5049693;28;20032;-61
2021/07/02 00:31:11;;;;;;;70.38;27.77;;;14.30;99.90;;;;;;5049156;28;20819;-61
2021/07/02 00:33:37;;;;;;;74.55;29.13;;;14.30;99.90;;;;;;5049644;28;20500;-61
2021/07/02 00:36:03;;;;;;;74.25;29.27;;;14.30;99.90;;;;;;5050361;28;20033;-61
2021/07/02 00:38:29;;;;;;;66.25;27.83;;;14.30;99.90;;;;;;5048843;28;20043;-61
2021/07/02 00:40:54;;;;;;;63.03;27.27;;;14.20;99.90;;;;;;5046520;28;20033;-61
2021/07/02 00:43:20;;;;;;;64.47;27.23;;;14.30;99.90;;;;;;5051073;28;20025;-61
2021/07/02 00:45:46;;;;;;;88.72;31.08;;;14.20;99.90;;;;;;5049679;28;20032;-61
2021/07/02 00:48:11;;;;;;;74.90;29.08;;;14.20;99.90;;;;;;5047694;28;20036;-61
2021/07/02 00:50:37;;;;;;;79.97;28.52;;;14.20;99.90;;;;;;5052416;28;20060;-61
2021/07/02 00:53:04;;;;;;;77.05;27.98;;;14.20;99.90;;;;;;5051431;28;20504;-61
2021/07/02 00:55:31;;;;;;;94.30;28.98;;;14.20;99.90;;;;;;5049029;28;20104;-60
2021/07/02 00:57:57;;;;;;;69.57;27.92;;;14.20;99.90;;;;;;5029986;28;20032;-61
2021/07/02 01:00:23;;;;;;;60.05;27.48;;;14.20;99.90;;;;;;5048654;28;20088;-61
2021/07/02 01:02:49;;;;;;;73.40;28.00;;;14.20;99.90;;;;;;5047028;28;20124;-61
2021/07/02 01:05:15;;;;;;;79.18;29.88;;;14.30;99.90;;;;;;5048299;28;20075;-61
2021/07/02 01:07:41;;;;;;;71.18;28.92;;;14.20;99.90;;;;;;5048573;28;20032;-61
2021/07/02 01:10:08;;;;;;;78.32;30.17;;;14.20;99.90;;;;;;5047676;28;20171;-61
2021/07/02 01:12:35;;;;;;;73.25;29.70;;;14.20;99.90;;;;;;5046654;28;20395;-61
2021/07/02 01:15:00;;;;;;;73.85;27.48;;;14.10;99.90;;;;;;5040947;28;20024;-58
2021/07/02 01:17:26;;;;;;;65.65;28.35;;;14.10;99.90;;;;;;5049863;28;20399;-61
2021/07/02 01:19:53;;;;;;;72.90;29.35;;;14.10;99.90;;;;;;5050163;28;20392;-61
2021/07/02 01:22:23;;;;;;;68.75;28.50;;;14.00;99.90;;;;;;5048171;28;20484;-61
2021/07/02 01:24:50;;;;;;;78.10;29.65;;;14.00;99.90;;;;;;5048972;28;20040;-61
2021/07/02 01:27:16;;;;;;;62.17;27.55;;;13.90;99.90;;;;;;5050313;28;20074;-59
2021/07/02 01:29:41;;;;;;;74.95;27.77;;;13.90;99.90;;;;;;5046720;28;20107;-60
2021/07/02 01:32:07;;;;;;;70.85;26.33;;;13.90;99.90;;;;;;5048840;28;20037;-60
2021/07/02 01:34:33;;;;;;;65.50;27.33;;;13.90;99.90;;;;;;5048935;28;20100;-60
2021/07/02 01:36:58;;;;;;;62.70;26.83;;;13.80;99.90;;;;;;5048335;28;20036;-60
2021/07/02 01:39:24;;;;;;;71.72;29.45;;;13.80;99.90;;;;;;5047211;28;20029;-61
2021/07/02 01:41:50;;;;;;;65.15;26.00;;;13.80;99.90;;;;;;5048451;28;20404;-61
2021/07/02 01:44:15;;;;;;;63.15;27.80;;;13.80;99.90;;;;;;5029545;28;20373;-61
2021/07/02 01:46:41;;;;;;;66.20;27.25;;;13.80;99.90;;;;;;5048635;28;20032;-61
2021/07/02 01:49:06;;;;;;;64.68;26.08;;;13.70;99.90;;;;;;5046385;28;20059;-61
2021/07/02 01:51:32;;;;;;;66.75;27.50;;;13.70;99.90;;;;;;5048918;28;20557;-61
2021/07/02 01:53:58;;;;;;;65.32;28.02;;;13.70;99.90;;;;;;5045901;28;20063;-61
2021/07/02 01:56:23;;;;;;;61.05;27.17;;;13.70;99.90;;;;;;5046682;28;20035;-61
2021/07/02 01:58:50;;;;;;;73.47;27.33;;;13.70;99.90;;;;;;5046310;28;20025;-61
2021/07/02 02:01:15;;;;;;;67.75;26.92;;;13.60;99.90;;;;;;5049228;28;20040;-61
2021/07/02 02:03:41;;;;;;;62.22;26.95;;;13.60;99.90;;;;;;5045620;28;20025;-61
2021/07/02 02:06:07;;;;;;;70.13;26.92;;;13.60;99.90;;;;;;5046291;28;20485;-60
2021/07/02 02:08:33;;;;;;;68.72;27.58;;;13.50;99.90;;;;;;5049310;28;20644;-59
2021/07/02 02:10:58;;;;;;;66.85;26.83;;;13.40;99.90;;;;;;5037362;28;20488;-60
2021/07/02 02:13:24;;;;;;;67.55;27.27;;;13.40;99.90;;;;;;5040047;28;20032;-61
2021/07/02 02:15:49;;;;;;;70.97;26.85;;;13.30;99.90;;;;;;5038771;28;20029;-61
2021/07/02 02:18:15;;;;;;;61.40;25.25;;;13.30;99.90;;;;;;5033840;28;20560;-61
2021/07/02 02:20:40;;;;;;;67.50;27.20;;;13.30;99.90;;;;;;5034666;28;20116;-60
2021/07/02 02:23:06;;;;;;;64.05;26.25;;;13.20;99.90;;;;;;5038648;28;20029;-59
2021/07/02 02:25:32;;;;;;;71.40;27.40;;;13.20;99.90;;;;;;5038887;28;20435;-60
2021/07/02 02:27:57;;;;;;;68.32;25.90;;;13.20;99.90;;;;;;5039744;28;20127;-61
2021/07/02 02:30:24;;;;;;;78.03;27.52;;;13.20;99.90;;;;;;5039161;28;20039;-61
2021/07/02 02:32:49;;;;;;;63.85;25.33;;;13.10;99.90;;;;;;5036923;28;20489;-60
2021/07/02 02:35:15;;;;;;;63.63;27.05;;;13.10;99.90;;;;;;5043444;28;20036;-61
2021/07/02 02:37:41;;;;;;;59.33;27.20;;;13.00;99.90;;;;;;5045730;28;20036;-59
2021/07/02 02:40:07;;;;;;;63.38;26.85;;;13.10;99.90;;;;;;5033236;28;20021;-61
2021/07/02 02:42:33;;;;;;;71.35;26.95;;;13.00;99.90;;;;;;5018428;28;20067;-61
2021/07/02 02:44:59;;;;;;;66.75;27.27;;;13.00;99.90;;;;;;5038996;28;20401;-61
2021/07/02 02:47:24;;;;;;;67.95;26.50;;;12.90;99.90;;;;;;5035117;28;20506;-58
2021/07/02 02:49:50;;;;;;;72.18;28.65;;;12.90;99.90;;;;;;5034939;28;21549;-59
2021/07/02 02:52:15;;;;;;;62.67;25.92;;;12.90;99.90;;;;;;5035678;28;20025;-59
2021/07/02 02:54:41;;;;;;;67.40;25.73;;;12.90;99.90;;;;;;5035761;28;20037;-61
2021/07/02 02:57:07;;;;;;;62.38;25.50;;;12.90;99.90;;;;;;5036033;28;20025;-60
2021/07/02 02:59:37;;;;;;;66.95;24.95;;;12.90;99.90;;;;;;5032963;28;20033;-61
2021/07/02 03:02:03;;;;;;;65.30;26.02;;;12.90;99.90;;;;;;5038190;28;20064;-60
2021/07/02 03:04:31;;;;;;;69.40;27.45;;;12.80;99.90;;;;;;5036852;28;20028;-60
2021/07/02 03:06:56;;;;;;;62.33;24.85;;;12.80;99.90;;;;;;5035317;28;20560;-61
2021/07/02 03:09:22;;;;;;;56.60;24.83;;;12.80;99.90;;;;;;5016566;28;20033;-60
2021/07/02 03:11:51;;;;;;;63.15;27.05;;;12.80;99.90;;;;;;5035758;28;20032;-60
2021/07/02 03:14:20;;;;;;;59.30;27.15;;;12.70;99.90;;;;;;5037818;28;20074;-61
2021/07/02 03:16:46;;;;;;;60.58;25.83;;;12.60;99.90;;;;;;5038857;28;21873;-58
2021/07/02 03:19:12;;;;;;;57.42;26.92;;;12.60;99.90;;;;;;5038114;28;20035;-61
2021/07/02 03:21:38;;;;;;;56.17;25.00;;;12.60;99.90;;;;;;5031092;28;20021;-61
2021/07/02 03:24:04;;;;;;;59.80;25.75;;;12.50;99.90;;;;;;5041033;28;20032;-61
2021/07/02 03:26:30;;;;;;;65.38;26.85;;;12.50;99.90;;;;;;5048316;28;20112;-61
2021/07/02 03:28:56;;;;;;;57.70;26.20;;;12.50;99.90;;;;;;5045911;28;20257;-58
2021/07/02 03:31:21;;;;;;;75.68;27.27;;;12.40;99.90;;;;;;5046453;28;20110;-61
2021/07/02 03:33:47;;;;;;;61.28;27.05;;;12.40;99.90;;;;;;5062371;22;20041;-60
2021/07/02 03:36:12;;;;;;;60.40;27.20;;;12.30;99.90;;;;;;5041093;28;20036;-57
2021/07/02 03:38:38;;;;;;;60.65;27.92;;;12.30;99.90;;;;;;5042528;28;20404;-59
2021/07/02 03:41:03;;;;;;;64.30;25.88;;;12.30;99.90;;;;;;5035722;28;20032;-57
2021/07/02 03:43:29;;;;;;;64.75;27.60;;;12.30;99.90;;;;;;5022989;28;20033;-59
2021/07/02 03:45:54;;;;;;;65.32;27.15;;;12.30;99.90;;;;;;5017037;28;20459;-60
2021/07/02 03:48:20;;;;;;;67.15;26.23;;;12.30;99.90;;;;;;4995858;28;20111;-59
2021/07/02 03:50:46;;;;;;;66.82;26.88;;;12.30;99.90;;;;;;5015926;28;20135;-58
2021/07/02 03:53:11;;;;;;;53.70;25.23;;;12.20;99.90;;;;;;5020891;28;20496;-55
2021/07/02 03:55:37;;;;;;;65.03;27.48;;;12.20;99.90;;;;;;5018721;28;20056;-60
2021/07/02 03:58:04;;;;;;;66.95;26.85;;;12.30;99.90;;;;;;5018045;28;20512;-60
2021/07/02 04:00:30;;;;;;;63.80;25.00;;;12.30;99.90;;;;;;5020529;28;20064;-60
2021/07/02 04:02:56;;;;;;;62.03;26.33;;;12.30;99.90;;;;;;5014412;28;20033;-57
2021/07/02 04:05:21;;;;;;;73.85;28.23;;;12.30;99.90;;;;;;5018202;28;20026;-57
2021/07/02 04:07:47;;;;;;;55.13;25.63;;;12.30;99.90;;;;;;5023762;28;20017;-57
2021/07/02 04:10:13;;;;;;;59.53;25.35;;;12.30;99.90;;;;;;5023982;28;20045;-55
2021/07/02 04:12:38;;;;;;;61.85;26.35;;;12.20;99.90;;;;;;5016251;28;20428;-55
2021/07/02 04:15:08;;;;;;;59.80;26.10;;;12.20;99.90;;;;;;5026485;28;20409;-57
2021/07/02 04:17:36;;;;;;;54.58;24.30;;;12.20;99.90;;;;;;5016865;28;20159;-55
2021/07/02 04:20:02;;;;;;;61.47;25.58;;;12.20;99.90;;;;;;5021257;28;20034;-55
2021/07/02 04:22:28;;;;;;;64.32;24.67;;;12.10;99.90;;;;;;5024283;28;20087;-59
2021/07/02 04:24:53;;;;;;;65.20;27.08;;;12.10;99.90;;;;;;5027501;28;20069;-56
2021/07/02 04:27:19;;;;;;;65.07;25.25;;;12.00;99.90;;;;;;5017506;28;20104;-58
2021/07/02 04:29:44;;;;;;;68.45;26.42;;;12.00;99.90;;;;;;5021682;28;20036;-59
2021/07/02 04:32:10;;;;;;;60.33;25.65;;;12.00;99.90;;;;;;5026889;28;20037;-58
2021/07/02 04:34:36;;;;;;;62.00;27.13;;;12.00;99.90;;;;;;5019663;28;20046;-58
2021/07/02 04:37:02;;;;;;;63.95;26.42;;;12.00;99.90;;;;;;5026563;28;20166;-58
2021/07/02 04:39:27;;;;;;;61.92;26.08;;;12.00;99.90;;;;;;5026486;28;20025;-57
2021/07/02 04:41:53;;;;;;;72.65;27.02;;;12.00;99.90;;;;;;5019545;28;20026;-57
2021/07/02 04:44:19;;;;;;;65.05;26.42;;;12.00;99.90;;;;;;5030067;28;20041;-58
2021/07/02 04:46:44;;;;;;;59.67;25.27;;;11.90;99.90;;;;;;5029115;28;20489;-59
2021/07/02 04:49:10;;;;;;;62.05;26.23;;;12.00;99.90;;;;;;5025533;28;20503;-57
2021/07/02 04:51:35;;;;;;;59.78;26.08;;;12.00;99.90;;;;;;5030385;28;20045;-61
2021/07/02 04:54:01;;;;;;;69.43;26.52;;;12.00;99.90;;;;;;5022312;28;20029;-57
2021/07/02 04:56:27;;;;;;;62.53;25.77;;;12.00;99.90;;;;;;5020628;28;20034;-54
2021/07/02 04:58:56;;;;;;;64.30;27.15;;;11.90;99.90;;;;;;5018755;28;20038;-57
2021/07/02 05:01:23;;;;;;;64.18;26.35;;;12.00;99.90;;;;;;5019356;28;20083;-58
2021/07/02 05:03:49;;;;;;;57.50;26.00;;;12.00;99.90;;;;;;5016251;28;20022;-57
2021/07/02 05:06:14;;;;;;;67.38;26.52;;;12.10;99.90;;;;;;5021822;28;20067;-58
2021/07/02 05:08:40;;;;;;;64.20;26.15;;;12.20;99.90;;;;;;5020288;28;20037;-56
2021/07/02 05:11:07;;;;;;;62.22;27.75;;;12.20;99.90;;;;;;5022645;28;20059;-57
2021/07/02 05:13:33;;;;;;;65.05;27.90;;;12.30;99.90;;;;;;5018348;28;20029;-58
2021/07/02 05:15:58;;;;;;;60.28;27.48;;;12.40;99.90;;;;;;5020515;28;20022;-58
2021/07/02 05:18:24;;;;;;;57.53;27.90;;;12.40;99.90;;;;;;5017848;28;20033;-57
2021/07/02 05:20:49;;;;;;;59.97;26.13;;;12.50;99.90;;;;;;5023181;28;20063;-56
2021/07/02 05:23:15;;;;;;;57.92;27.15;;;12.60;99.90;;;;;;5027942;28;20025;-56
2021/07/02 05:25:41;;;;;;;66.03;26.05;;;12.60;99.90;;;;;;5024232;28;20025;-58
2021/07/02 05:28:06;;;;;;;59.40;27.95;;;12.70;99.90;;;;;;5002857;28;20059;-58
2021/07/02 05:30:32;;;;;;;69.13;30.67;;;12.80;99.90;;;;;;5021097;28;20037;-58
2021/07/02 05:32:57;;;;;;;59.75;26.25;;;12.90;99.90;;;;;;5016617;28;20064;-58
2021/07/02 05:35:23;;;;;;;71.85;30.15;;;13.00;99.90;;;;;;5025900;28;20037;-58
2021/07/02 05:37:49;;;;;;;63.13;26.13;;;13.10;99.90;;;;;;5028647;28;20045;-56
2021/07/02 05:40:16;;;;;;;61.22;27.45;;;13.10;99.90;;;;;;5023491;28;20090;-56
2021/07/02 05:42:42;;;;;;;60.10;28.38;;;13.20;99.90;;;;;;5029591;28;20079;-59
2021/07/02 05:45:08;;;;;;;66.93;28.48;;;13.30;99.90;;;;;;5030550;28;20018;-56
2021/07/02 05:50:14;;;;;;;70.30;29.25;;;13.50;99.90;;;;;;5017919;28;21334;-58
2021/07/02 05:52:40;;;;;;;60.08;28.50;;;13.60;99.90;;;;;;5023281;28;20033;-58
2021/07/02 05:55:06;;;;;;;54.20;25.65;;;13.70;99.90;;;;;;5024613;28;20551;-57
2021/07/02 05:57:31;;;;;;;59.83;27.20;;;13.70;99.90;;;;;;5025297;28;20029;-58
2021/07/02 05:59:57;;;;;;;56.60;26.73;;;13.80;99.90;;;;;;5016441;28;20026;-56
2021/07/02 06:02:23;;;;;;;66.28;28.80;;;13.90;99.90;;;;;;5016035;28;20493;-58
2021/07/02 06:04:48;;;;;;;50.55;25.10;;;14.00;99.90;;;;;;5020525;28;20104;-57
2021/07/02 06:07:14;;;;;;;53.50;26.15;;;14.10;99.90;;;;;;5015040;28;20133;-58
2021/07/02 06:09:39;;;;;;;51.85;24.48;;;14.10;99.90;;;;;;5017196;28;20051;-58
2021/07/02 06:12:05;;;;;;;47.88;23.45;;;14.20;99.90;;;;;;5019088;28;20047;-58
2021/07/02 06:14:31;;;;;;;48.03;24.95;;;14.20;99.90;;;;;;5016102;28;20034;-58
2021/07/02 06:16:57;;;;;;;46.55;23.40;;;14.30;99.90;;;;;;5016547;28;20041;-57
2021/07/02 06:19:23;;;;;;;55.75;23.67;;;14.30;99.90;;;;;;5013912;28;20037;-58
2021/07/02 06:21:49;;;;;;;45.08;22.48;;;14.30;99.90;;;;;;5014834;28;22530;-58
2021/07/02 06:24:15;;;;;;;44.70;22.30;;;14.40;99.90;;;;;;5019212;28;20029;-58
2021/07/02 06:26:40;;;;;;;44.95;20.25;;;14.50;99.90;;;;;;5018008;28;20112;-62
2021/07/02 06:29:06;;;;;;;45.15;20.85;;;14.60;99.90;;;;;;5018193;28;20040;-58
2021/07/02 06:31:32;;;;;;;45.47;19.35;;;14.80;99.90;;;;;;5018146;28;20029;-58
2021/07/02 06:33:57;;;;;;;43.75;20.23;;;15.00;99.90;;;;;;5019616;28;20047;-58
2021/07/02 06:36:23;;;;;;;36.10;17.17;;;15.10;99.90;;;;;;5016400;28;20041;-59
2021/07/02 06:38:48;;;;;;;32.13;15.40;;;15.20;99.90;;;;;;5016748;28;20034;-58
2021/07/02 06:41:14;;;;;;;42.85;17.63;;;15.30;99.90;;;;;;5017791;28;20542;-55
2021/07/02 06:43:40;;;;;;;34.65;16.60;;;15.30;99.90;;;;;;5015055;28;20157;-59
2021/07/02 06:46:05;;;;;;;37.50;18.00;;;15.30;99.90;;;;;;5017571;28;20400;-57
2021/07/02 06:48:31;;;;;;;40.70;18.73;;;15.20;99.90;;;;;;5017539;28;20042;-57
2021/07/02 06:50:56;;;;;;;36.85;13.85;;;15.20;99.90;;;;;;5018018;28;20068;-58
2021/07/02 06:53:23;;;;;;;32.15;15.65;;;15.30;99.90;;;;;;5021845;28;20042;-56
2021/07/02 06:55:49;;;;;;;32.58;13.48;;;15.30;99.90;;;;;;5017060;28;20021;-55
2021/07/02 06:58:14;;;;;;;28.20;13.95;;;15.40;99.90;;;;;;5023750;28;20060;-58
2021/07/02 07:00:40;;;;;;;31.23;12.00;;;15.40;99.90;;;;;;5018817;28;21116;-57
2021/07/02 07:03:06;;;;;;;29.92;13.50;;;15.50;99.90;;;;;;5021707;28;20415;-58
2021/07/02 07:05:33;;;;;;;23.40;10.75;;;15.50;99.90;;;;;;5025318;28;20087;-58
2021/07/02 07:07:58;;;;;;;19.75;10.10;;;15.50;99.90;;;;;;5017661;28;20022;-57
2021/07/02 07:10:24;;;;;;;22.02;11.85;;;15.50;99.90;;;;;;5018025;28;20038;-57
2021/07/02 07:12:50;;;;;;;20.75;9.80;;;15.40;99.90;;;;;;5010883;28;20044;-56
2021/07/02 07:15:15;;;;;;;25.02;11.35;;;15.40;99.90;;;;;;5016692;28;20300;-57
2021/07/02 07:17:41;;;;;;;22.33;9.18;;;15.40;99.90;;;;;;5018770;28;20091;-58
2021/07/02 07:20:07;;;;;;;24.80;9.45;;;15.50;99.90;;;;;;5019601;28;20029;-57
2021/07/02 07:22:33;;;;;;;24.67;9.27;;;15.50;99.90;;;;;;5020045;28;20057;-58
2021/07/02 07:24:59;;;;;;;20.80;9.48;;;15.50;99.90;;;;;;5019294;28;20076;-58
2021/07/02 07:27:24;;;;;;;27.92;10.68;;;15.60;99.90;;;;;;5021206;28;20037;-57
2021/07/02 07:29:50;;;;;;;19.33;9.38;;;15.60;99.90;;;;;;5023253;28;20030;-56
2021/07/02 07:32:15;;;;;;;10.85;5.05;;;15.70;99.90;;;;;;5020557;28;20083;-57
2021/07/02 07:34:59;;;;;;;9.45;5.10;;;15.70;99.90;;;;;;5024437;28;20033;-58
2021/07/02 07:37:27;;;;;;;10.47;6.30;;;15.80;99.90;;;;;;5023113;28;20059;-57
2021/07/02 07:39:53;;;;;;;16.05;6.10;;;15.80;99.90;;;;;;5021503;28;20026;-59
2021/07/02 07:42:19;;;;;;;10.40;7.25;;;15.90;99.90;;;;;;5022895;28;20029;-59
2021/07/02 07:44:45;;;;;;;16.42;6.95;;;16.00;99.90;;;;;;5020683;28;20489;-59
2021/07/02 07:47:10;;;;;;;10.25;6.40;;;16.00;99.90;;;;;;5021307;28;20018;-58
2021/07/02 07:49:37;;;;;;;19.77;6.90;;;16.10;99.90;;;;;;5023203;28;20038;-58
2021/07/02 07:54:29;;;;;;;12.77;7.60;;;16.40;99.90;;;;;;5022707;28;20599;-58
2021/07/02 07:56:55;;;;;;;14.98;8.00;;;16.40;99.90;;;;;;5022511;28;20128;-58
2021/07/02 07:59:25;;;;;;;11.55;7.40;;;16.50;99.90;;;;;;5022606;28;20453;-56
2021/07/02 08:01:51;;;;;;;10.40;6.85;;;16.70;99.90;;;;;;5021849;28;20018;-56
2021/07/02 08:04:16;;;;;;;11.13;7.30;;;16.80;99.90;;;;;;5023173;28;20455;-57
2021/07/02 08:06:43;;;;;;;9.27;6.43;;;16.90;99.90;;;;;;5024608;28;20370;-58
2021/07/02 08:09:10;;;;;;;10.00;6.60;;;17.00;99.90;;;;;;5022372;28;20033;-56
2021/07/02 08:11:36;;;;;;;18.77;8.05;;;17.10;99.90;;;;;;5022128;28;20462;-58
2021/07/02 08:14:02;;;;;;;18.05;7.72;;;17.20;99.90;;;;;;5021966;28;20045;-59
2021/07/02 08:16:27;;;;;;;16.30;8.32;;;17.30;99.90;;;;;;5023264;28;20026;-57
2021/07/02 08:18:53;;;;;;;18.02;8.48;;;17.50;99.90;;;;;;5020740;28;20025;-59
2021/07/02 08:21:18;;;;;;;17.15;8.55;;;17.60;99.90;;;;;;5023579;28;20022;-58
2021/07/02 08:23:44;;;;;;;17.23;8.90;;;17.80;99.90;;;;;;5020212;28;20456;-59
2021/07/02 08:26:12;;;;;;;17.63;8.50;;;17.80;99.90;;;;;;5022951;28;20029;-59
2021/07/02 08:31:22;;;;;;;18.00;8.00;;;17.90;99.90;;;;;;5020618;28;20083;-59
2021/07/02 08:33:47;;;;;;;12.20;8.27;;;18.00;99.90;;;;;;5021436;28;20509;-59
2021/07/02 08:36:13;;;;;;;16.13;8.02;;;18.10;99.90;;;;;;5022404;28;20025;-57
2021/07/02 08:38:38;;;;;;;13.75;8.05;;;18.20;99.90;;;;;;5022165;28;20040;-57
2021/07/02 08:41:07;;;;;;;23.08;6.25;;;18.20;99.90;;;;;;5021142;28;20476;-59
2021/07/02 08:43:32;;;;;;;16.77;6.70;;;18.20;99.90;;;;;;5018368;28;20567;-59
2021/07/02 08:45:58;;;;;;;15.48;6.70;;;18.20;99.90;;;;;;5021281;28;20053;-58
2021/07/02 08:48:26;;;;;;;13.32;5.93;;;18.30;99.90;;;;;;5019660;28;20022;-56
2021/07/02 08:50:53;;;;;;;15.88;5.97;;;18.40;99.90;;;;;;5025581;28;20035;-59
2021/07/02 08:53:18;;;;;;;10.32;5.22;;;18.40;99.90;;;;;;5022274;28;20143;-59
2021/07/02 08:55:44;;;;;;;10.40;5.03;;;18.50;99.90;;;;;;5021967;28;20428;-59
2021/07/02 08:58:14;;;;;;;11.98;5.57;;;18.50;99.90;;;;;;5021370;28;20396;-58
2021/07/02 09:00:45;;;;;;;11.60;5.07;;;18.70;99.90;;;;;;5020405;28;20038;-58
2021/07/02 09:03:32;;;;;;;9.07;4.75;;;18.80;99.90;;;;;;5019477;28;20038;-60
2021/07/02 09:06:16;;;;;;;10.90;4.93;;;18.80;99.90;;;;;;5023082;28;20083;-60
2021/07/02 09:09:04;;;;;;;11.98;4.07;;;19.00;99.90;;;;;;5020123;28;20105;-59
2021/07/02 09:11:31;;;;;;;11.75;3.42;;;19.10;99.90;;;;;;5021419;28;20104;-60
2021/07/02 09:13:58;;;;;;;6.68;3.85;;;19.20;99.90;;;;;;5015961;28;21992;-60
2021/07/02 09:16:41;;;;;;;10.15;4.50;;;19.20;99.90;;;;;;5023613;28;20026;-58
2021/07/02 09:19:27;;;;;;;6.30;3.30;;;19.20;99.90;;;;;;5025121;28;20030;-58
2021/07/02 09:22:16;;;;;;;5.82;2.70;;;19.30;99.90;;;;;;5026821;28;20030;-59
2021/07/02 09:24:43;;;;;;;7.10;3.50;;;19.40;99.90;;;;;;5029246;28;20030;-59
2021/07/02 09:27:30;;;;;;;7.32;3.80;;;19.70;99.90;;;;;;5029614;28;20036;-58
2021/07/02 09:30:08;;;;;;;4.38;3.22;;;19.60;99.90;;;;;;5022498;28;20030;-59
2021/07/02 09:32:42;;;;;;;9.57;4.30;;;19.60;99.90;;;;;;5021508;28;20456;-59
2021/07/02 09:35:08;;;;;;;13.95;5.28;;;19.40;99.90;;;;;;5079021;23;20044;-64
2021/07/02 09:37:41;;;;;;;13.05;4.45;;;19.50;99.90;;;;;;5056524;28;20035;-64
2021/07/02 09:40:14;;;;;;;12.07;4.90;;;19.50;99.90;;;;;;5069160;28;20082;-65
2021/07/02 09:42:41;;;;;;;9.45;5.13;;;19.50;99.90;;;;;;5084900;28;20111;-64
2021/07/02 09:45:11;;;;;;;15.93;6.97;;;19.60;99.90;;;;;;5071228;28;20020;-64
2021/07/02 09:47:38;;;;;;;12.90;7.07;;;19.60;99.90;;;;;;5069494;28;20026;-64
2021/07/02 09:50:26;;;;;;;9.77;5.47;;;19.60;99.90;;;;;;5066963;28;20029;-65
2021/07/02 09:52:59;;;;;;;13.10;5.55;;;19.50;99.90;;;;;;5064948;28;20377;-61
2021/07/02 09:55:29;;;;;;;11.35;6.18;;;19.40;99.90;;;;;;5064834;28;20484;-60
2021/07/02 09:58:14;;;;;;;10.75;6.13;;;19.50;99.90;;;;;;5067087;28;20569;-60
